Time;durP1;ratioP1;P1;durP2;ratioP2;P2;SDS_P1;SDS_P2;PMS_P1;PMS_P2;Temp;Humidity;BMP_temperature;BMP_pressure;BME280_temperature;BME280_humidity;BME280_pressure;Samples;Min_cycle;Max_cycle;Signal;HPM_P1;HPM_P2
2023/01/23 00:01:48;;;;;;;15.30;11.83;;;1.60;99.90;;;;;;5010539;28;20529;-70
2023/01/23 00:04:14;;;;;;;16.47;13.03;;;1.70;99.90;;;;;;5022041;28;20437;-70
2023/01/23 00:06:40;;;;;;;16.47;12.30;;;1.70;99.90;;;;;;5026981;28;20445;-70
2023/01/23 00:09:06;;;;;;;15.80;12.20;;;1.70;99.90;;;;;;5024857;28;20457;-70
2023/01/23 00:11:32;;;;;;;17.63;12.10;;;1.70;99.90;;;;;;5017814;28;20273;-70
2023/01/23 00:13:59;;;;;;;17.03;12.80;;;1.60;99.90;;;;;;5028395;28;20183;-70
2023/01/23 00:16:27;;;;;;;13.47;11.27;;;1.60;99.90;;;;;;5013980;28;20211;-70
2023/01/23 00:18:55;;;;;;;15.77;12.87;;;1.60;99.90;;;;;;5030221;28;20472;-70
2023/01/23 00:21:23;;;;;;;17.97;12.03;;;1.60;99.90;;;;;;5022396;28;20959;-70
2023/01/23 00:23:52;;;;;;;14.80;11.80;;;1.70;99.90;;;;;;5023417;28;20455;-70
2023/01/23 00:26:20;;;;;;;15.50;12.00;;;1.70;99.90;;;;;;5022393;28;20803;-70
2023/01/23 00:28:46;;;;;;;15.37;12.97;;;1.70;99.90;;;;;;5023945;28;20461;-70
2023/01/23 00:31:18;;;;;;;16.33;12.70;;;1.70;99.90;;;;;;5025548;28;20441;-70
2023/01/23 00:33:44;;;;;;;13.87;11.90;;;1.70;99.90;;;;;;5022337;28;20506;-70
2023/01/23 00:36:11;;;;;;;18.03;13.33;;;1.60;99.90;;;;;;5014449;28;20891;-70
2023/01/23 00:38:36;;;;;;;15.70;11.00;;;1.60;99.90;;;;;;5022207;28;20449;-70
2023/01/23 00:41:02;;;;;;;17.20;12.20;;;1.60;99.90;;;;;;5024056;28;20906;-70
2023/01/23 00:43:29;;;;;;;14.50;12.87;;;1.70;99.90;;;;;;5019080;28;20182;-70
2023/01/23 00:45:54;;;;;;;15.57;12.90;;;1.70;99.90;;;;;;5024188;28;20495;-70
2023/01/23 00:48:20;;;;;;;15.23;11.47;;;1.70;99.90;;;;;;5013750;28;20532;-70
2023/01/23 00:50:46;;;;;;;14.87;11.53;;;1.70;99.90;;;;;;5024495;28;20259;-70
2023/01/23 00:53:12;;;;;;;14.87;11.30;;;1.60;99.90;;;;;;5020981;28;20182;-70
2023/01/23 00:55:38;;;;;;;14.33;11.40;;;1.60;99.90;;;;;;5019112;28;20476;-70
2023/01/23 00:58:03;;;;;;;16.00;11.73;;;1.70;99.90;;;;;;5003165;28;20572;-70
2023/01/23 01:00:29;;;;;;;15.60;10.80;;;1.70;99.90;;;;;;5021366;28;20445;-70
2023/01/23 01:02:54;;;;;;;14.47;11.87;;;1.60;99.90;;;;;;5020061;28;20175;-70
2023/01/23 01:05:20;;;;;;;15.00;11.53;;;1.60;99.90;;;;;;5013538;28;20176;-70
2023/01/23 01:07:46;;;;;;;16.60;11.73;;;1.50;99.90;;;;;;5018444;28;20212;-70
2023/01/23 01:10:12;;;;;;;13.70;10.83;;;1.50;99.90;;;;;;5023886;28;20659;-70
2023/01/23 01:12:38;;;;;;;18.60;11.80;;;1.50;99.90;;;;;;5018041;28;20434;-70
2023/01/23 01:15:05;;;;;;;15.17;11.93;;;1.60;99.90;;;;;;5025100;28;20785;-70
2023/01/23 01:17:30;;;;;;;14.20;10.60;;;1.60;99.90;;;;;;5022833;28;20241;-70
2023/01/23 01:19:56;;;;;;;18.83;12.60;;;1.70;99.90;;;;;;5015531;28;20849;-70
2023/01/23 01:22:21;;;;;;;14.47;12.57;;;1.70;99.90;;;;;;5026051;28;20189;-70
2023/01/23 01:24:47;;;;;;;15.20;12.83;;;1.60;99.90;;;;;;5016627;28;20191;-70
2023/01/23 01:27:12;;;;;;;14.37;12.07;;;1.60;99.90;;;;;;5014229;28;20266;-70
2023/01/23 01:29:38;;;;;;;15.40;11.13;;;1.60;99.90;;;;;;5026352;28;20191;-70
2023/01/23 01:32:03;;;;;;;14.67;11.83;;;1.50;99.90;;;;;;5021117;28;20237;-70
2023/01/23 01:34:29;;;;;;;13.50;12.00;;;1.50;99.90;;;;;;5022392;28;20186;-70
2023/01/23 01:36:55;;;;;;;16.40;11.90;;;1.50;99.90;;;;;;5023344;28;20198;-70
2023/01/23 01:39:20;;;;;;;15.33;11.97;;;1.40;99.90;;;;;;5022710;28;20209;-70
2023/01/23 01:41:46;;;;;;;15.27;11.37;;;1.40;99.90;;;;;;5014316;28;20671;-70
2023/01/23 01:44:17;;;;;;;16.10;12.40;;;1.30;99.90;;;;;;5024300;28;20220;-70
2023/01/23 01:46:44;;;;;;;16.97;12.67;;;1.40;99.90;;;;;;5014026;28;20179;-70
2023/01/23 01:49:30;;;;;;;15.47;11.73;;;1.30;99.90;;;;;;5018249;28;20462;-70
2023/01/23 01:52:05;;;;;;;16.43;11.87;;;1.30;99.90;;;;;;5006368;28;20450;-70
2023/01/23 01:54:37;;;;;;;18.80;12.13;;;1.30;99.90;;;;;;5017559;28;20441;-70
2023/01/23 01:57:08;;;;;;;15.97;12.83;;;1.30;99.90;;;;;;5011157;28;20833;-70
2023/01/23 01:59:48;;;;;;;18.70;12.20;;;1.20;99.90;;;;;;5006886;28;20923;-70
2023/01/23 02:02:23;;;;;;;17.57;13.50;;;1.20;99.90;;;;;;5010959;28;20465;-70
2023/01/23 02:04:53;;;;;;;17.53;13.83;;;1.20;99.90;;;;;;5011375;28;20440;-70
2023/01/23 02:07:31;;;;;;;18.97;13.03;;;1.10;99.90;;;;;;5006364;28;20970;-70
2023/01/23 02:09:57;;;;;;;17.03;12.00;;;1.10;99.90;;;;;;5006383;28;20433;-70
2023/01/23 02:12:25;;;;;;;16.07;12.00;;;1.10;99.90;;;;;;5010961;28;20954;-70
2023/01/23 02:14:51;;;;;;;18.50;14.00;;;1.20;99.90;;;;;;5010399;28;20183;-70
2023/01/23 02:17:17;;;;;;;16.10;11.90;;;1.20;99.90;;;;;;5010639;28;20520;-70
2023/01/23 02:20:15;;;;;;;15.37;11.40;;;1.30;99.90;;;;;;5009692;28;20441;-70
2023/01/23 02:22:57;;;;;;;15.80;12.27;;;1.30;99.90;;;;;;5008981;28;20438;-70
2023/01/23 02:25:42;;;;;;;16.67;12.90;;;1.40;99.90;;;;;;5017151;28;20519;-70
2023/01/23 02:28:13;;;;;;;16.53;11.90;;;1.40;99.90;;;;;;4994248;28;20445;-70
2023/01/23 02:30:41;;;;;;;17.20;12.40;;;1.50;99.90;;;;;;5008960;28;20432;-70
2023/01/23 02:33:18;;;;;;;17.23;13.37;;;1.50;99.90;;;;;;5010580;28;20436;-70
2023/01/23 02:35:44;;;;;;;16.77;12.50;;;1.40;99.90;;;;;;5010918;28;20461;-70
2023/01/23 02:38:11;;;;;;;17.80;12.10;;;1.40;99.90;;;;;;5018687;28;20463;-70
2023/01/23 02:40:39;;;;;;;14.67;12.17;;;1.50;99.90;;;;;;4992593;28;20186;-70
2023/01/23 02:43:08;;;;;;;18.23;13.03;;;1.50;99.90;;;;;;5010173;28;20433;-70
2023/01/23 02:45:34;;;;;;;17.10;12.00;;;1.50;99.90;;;;;;5010394;28;20532;-70
2023/01/23 02:48:00;;;;;;;18.90;12.57;;;1.50;99.90;;;;;;5008695;28;21027;-70
2023/01/23 02:50:28;;;;;;;15.50;12.17;;;1.50;99.90;;;;;;5010031;28;20206;-70
2023/01/23 02:52:56;;;;;;;17.30;11.67;;;1.40;99.90;;;;;;5010389;28;20430;-70
2023/01/23 02:55:22;;;;;;;16.03;12.77;;;1.40;99.90;;;;;;5011292;28;20445;-70
2023/01/23 02:57:48;;;;;;;20.47;13.77;;;1.40;99.90;;;;;;5009153;28;20453;-70
2023/01/23 03:00:18;;;;;;;17.23;12.33;;;1.40;99.90;;;;;;5006590;28;20199;-70
2023/01/23 03:02:47;;;;;;;17.60;13.00;;;1.50;99.90;;;;;;5014357;28;20183;-70
2023/01/23 03:05:13;;;;;;;18.23;13.50;;;1.60;99.90;;;;;;5014880;28;20440;-70
2023/01/23 03:07:38;;;;;;;14.40;12.77;;;1.50;99.90;;;;;;5013887;28;20454;-70
2023/01/23 03:10:06;;;;;;;19.33;14.23;;;1.50;99.90;;;;;;5011248;28;20262;-70
2023/01/23 03:12:32;;;;;;;19.23;14.57;;;1.60;99.90;;;;;;5011673;28;20217;-70
2023/01/23 03:14:57;;;;;;;18.00;11.97;;;1.50;99.90;;;;;;5014553;28;20508;-71
2023/01/23 03:17:24;;;;;;;17.93;12.10;;;1.40;99.90;;;;;;5019771;28;20683;-70
2023/01/23 03:19:49;;;;;;;17.63;13.10;;;1.40;99.90;;;;;;5023831;28;20210;-70
2023/01/23 03:22:15;;;;;;;17.60;13.63;;;1.50;99.90;;;;;;5023450;28;20900;-70
2023/01/23 03:24:40;;;;;;;19.47;14.10;;;1.50;99.90;;;;;;5024999;28;20225;-70
2023/01/23 03:27:06;;;;;;;18.20;13.50;;;1.50;99.90;;;;;;5025248;28;20295;-70
2023/01/23 03:32:16;;;;;;;20.37;14.70;;;1.60;99.90;;;;;;5019421;28;20612;-70
2023/01/23 03:34:42;;;;;;;17.50;14.33;;;1.60;99.90;;;;;;5024576;28;20472;-70
2023/01/23 03:37:10;;;;;;;18.80;13.57;;;1.60;99.90;;;;;;5021178;28;20210;-70
2023/01/23 03:42:20;;;;;;;18.53;13.10;;;1.60;99.90;;;;;;5026392;28;20505;-70
2023/01/23 03:44:45;;;;;;;19.50;13.73;;;1.70;99.90;;;;;;5022994;28;20523;-70
2023/01/23 03:47:11;;;;;;;19.67;14.60;;;1.60;99.90;;;;;;5019244;28;20260;-70
2023/01/23 03:49:36;;;;;;;21.13;14.60;;;1.60;99.90;;;;;;5020134;28;20570;-70
2023/01/23 03:52:02;;;;;;;17.23;13.13;;;1.60;99.90;;;;;;5025714;28;20682;-70
2023/01/23 03:54:28;;;;;;;18.67;13.87;;;1.60;99.90;;;;;;5026047;28;20190;-70
2023/01/23 03:56:53;;;;;;;21.17;14.30;;;1.60;99.90;;;;;;5017968;28;20218;-70
2023/01/23 03:59:19;;;;;;;21.00;15.10;;;1.60;99.90;;;;;;5021997;28;20562;-70
2023/01/23 04:01:44;;;;;;;19.50;14.07;;;1.60;99.90;;;;;;5023821;28;20183;-70
2023/01/23 04:04:10;;;;;;;19.47;13.13;;;1.50;99.90;;;;;;5022993;28;20236;-70
2023/01/23 04:06:35;;;;;;;19.87;14.10;;;1.50;99.90;;;;;;5018177;28;20278;-70
2023/01/23 04:09:01;;;;;;;18.63;13.70;;;1.50;99.90;;;;;;5017783;28;20288;-70
2023/01/23 04:11:27;;;;;;;18.43;13.63;;;1.60;99.90;;;;;;5016312;28;20195;-70
2023/01/23 04:13:53;;;;;;;17.00;13.20;;;1.60;99.90;;;;;;5025944;28;20182;-70
2023/01/23 04:16:20;;;;;;;19.63;14.33;;;1.60;99.90;;;;;;5021795;28;20207;-70
2023/01/23 04:18:46;;;;;;;17.17;13.83;;;1.60;99.90;;;;;;5025257;28;20472;-70
2023/01/23 04:21:11;;;;;;;18.90;14.20;;;1.50;99.90;;;;;;5012854;28;20946;-71
2023/01/23 04:23:37;;;;;;;21.97;15.17;;;1.50;99.90;;;;;;5012330;28;20198;-70
2023/01/23 04:26:03;;;;;;;20.63;15.20;;;1.50;99.90;;;;;;5015086;28;20226;-70
2023/01/23 04:28:28;;;;;;;21.93;16.07;;;1.50;99.90;;;;;;5015170;28;20211;-70
2023/01/23 04:30:54;;;;;;;22.33;16.00;;;1.40;99.90;;;;;;5012311;28;20187;-70
2023/01/23 04:33:19;;;;;;;23.97;14.80;;;1.40;99.90;;;;;;5020384;28;20197;-70
2023/01/23 04:35:53;;;;;;;20.13;15.63;;;1.40;99.90;;;;;;5021605;28;20256;-70
2023/01/23 04:38:20;;;;;;;21.20;13.80;;;1.40;99.90;;;;;;5014858;28;20206;-70
2023/01/23 04:40:46;;;;;;;21.17;15.80;;;1.40;99.90;;;;;;5024458;28;20452;-70
2023/01/23 04:43:12;;;;;;;21.10;14.57;;;1.40;99.90;;;;;;5027596;28;20808;-70
2023/01/23 04:45:37;;;;;;;19.63;14.77;;;1.40;99.90;;;;;;5023408;28;20444;-70
2023/01/23 04:48:03;;;;;;;22.80;16.10;;;1.30;99.90;;;;;;5024066;28;20226;-70
2023/01/23 04:50:29;;;;;;;20.13;15.53;;;1.30;99.90;;;;;;5017337;28;20559;-70
2023/01/23 04:52:55;;;;;;;20.10;15.00;;;1.40;99.90;;;;;;5026431;28;20437;-70
2023/01/23 04:55:22;;;;;;;26.57;16.50;;;1.40;99.90;;;;;;5025107;28;20185;-70
2023/01/23 04:57:47;;;;;;;22.57;16.37;;;1.40;99.90;;;;;;5021339;28;20511;-70
2023/01/23 05:00:13;;;;;;;22.53;16.13;;;1.40;99.90;;;;;;5020174;28;20473;-70
2023/01/23 05:02:39;;;;;;;21.03;14.30;;;1.40;99.90;;;;;;5027319;28;20190;-70
2023/01/23 05:05:05;;;;;;;21.67;14.77;;;1.40;99.90;;;;;;5023940;28;20583;-71
2023/01/23 05:07:31;;;;;;;22.10;15.60;;;1.50;99.90;;;;;;5025492;28;20237;-70
2023/01/23 05:09:56;;;;;;;25.77;15.70;;;1.50;99.90;;;;;;5020757;28;20465;-71
2023/01/23 05:12:21;;;;;;;20.70;14.50;;;1.50;99.90;;;;;;5024638;28;20293;-70
2023/01/23 05:14:47;;;;;;;23.10;14.93;;;1.50;99.90;;;;;;5023096;28;20655;-71
2023/01/23 05:17:16;;;;;;;20.30;15.10;;;1.50;99.90;;;;;;5020035;28;20244;-70
2023/01/23 05:19:41;;;;;;;19.23;13.90;;;1.50;99.90;;;;;;5021976;28;20183;-70
2023/01/23 05:22:07;;;;;;;21.33;15.60;;;1.50;99.90;;;;;;5023652;28;20437;-71
2023/01/23 05:24:32;;;;;;;18.50;14.23;;;1.50;99.90;;;;;;5017029;28;20186;-70
2023/01/23 05:26:58;;;;;;;23.67;15.17;;;1.60;99.90;;;;;;5017959;28;20720;-69
2023/01/23 05:29:23;;;;;;;19.60;14.23;;;1.50;99.90;;;;;;5020178;28;20236;-71
2023/01/23 05:31:49;;;;;;;21.07;14.77;;;1.50;99.90;;;;;;5010185;28;20235;-70
2023/01/23 05:34:14;;;;;;;19.23;14.10;;;1.50;99.90;;;;;;5007636;28;20175;-70
2023/01/23 05:36:40;;;;;;;19.33;14.30;;;1.50;99.90;;;;;;5011498;28;20214;-71
2023/01/23 05:39:05;;;;;;;19.60;14.53;;;1.60;99.90;;;;;;5010558;28;20197;-70
2023/01/23 05:41:31;;;;;;;21.97;15.53;;;1.60;99.90;;;;;;5012244;28;20561;-70
2023/01/23 05:43:56;;;;;;;21.40;15.43;;;1.60;99.90;;;;;;5019647;28;20674;-71
2023/01/23 05:46:22;;;;;;;20.37;15.27;;;1.60;99.90;;;;;;5014583;28;20564;-71
2023/01/23 05:48:49;;;;;;;25.73;14.80;;;1.60;99.90;;;;;;5018191;28;20206;-69
2023/01/23 05:51:15;;;;;;;20.63;15.00;;;1.60;99.90;;;;;;5018069;28;20187;-70
2023/01/23 05:53:40;;;;;;;20.17;15.70;;;1.60;99.90;;;;;;5013957;28;20503;-70
2023/01/23 05:56:09;;;;;;;21.60;15.70;;;1.60;99.90;;;;;;5014492;28;20213;-70
2023/01/23 05:58:35;;;;;;;18.57;14.20;;;1.60;99.90;;;;;;5016106;28;20230;-70
2023/01/23 06:01:04;;;;;;;19.20;13.40;;;1.60;99.90;;;;;;5016676;28;20469;-70
2023/01/23 06:03:29;;;;;;;17.87;13.23;;;1.60;99.90;;;;;;5022352;28;20175;-70
2023/01/23 06:05:55;;;;;;;22.27;16.30;;;1.60;99.90;;;;;;5014468;28;21003;-70
2023/01/23 06:08:20;;;;;;;20.20;15.07;;;1.60;99.90;;;;;;5023705;28;20229;-70
2023/01/23 06:10:46;;;;;;;19.07;14.10;;;1.70;99.90;;;;;;5021118;28;20191;-70
2023/01/23 06:13:12;;;;;;;20.60;15.10;;;1.70;99.90;;;;;;5024892;28;20312;-70
2023/01/23 06:15:37;;;;;;;21.10;15.23;;;1.70;99.90;;;;;;5020801;28;20186;-70
2023/01/23 06:18:03;;;;;;;19.53;14.73;;;1.60;99.90;;;;;;5019632;28;20301;-70
2023/01/23 06:20:28;;;;;;;20.97;15.67;;;1.50;99.90;;;;;;5021366;28;20205;-70
2023/01/23 06:22:53;;;;;;;22.00;15.00;;;1.50;99.90;;;;;;5024661;28;20585;-70
2023/01/23 06:25:20;;;;;;;21.97;15.00;;;1.50;99.90;;;;;;5013297;28;20228;-71
2023/01/23 06:27:46;;;;;;;21.03;13.43;;;1.40;99.90;;;;;;5009610;28;20205;-70
2023/01/23 06:30:12;;;;;;;22.13;15.13;;;1.40;99.90;;;;;;5011108;28;20921;-69
2023/01/23 06:32:37;;;;;;;21.20;14.83;;;1.40;99.90;;;;;;4993994;28;20209;-70
2023/01/23 06:35:03;;;;;;;23.97;14.23;;;1.40;99.90;;;;;;5017033;28;20643;-71
2023/01/23 06:37:29;;;;;;;21.20;14.50;;;1.40;99.90;;;;;;5009082;28;20720;-70
2023/01/23 06:39:54;;;;;;;22.47;15.30;;;1.30;99.90;;;;;;5010338;28;20442;-70
2023/01/23 06:42:20;;;;;;;25.10;16.23;;;1.30;99.90;;;;;;5018336;28;20257;-70
2023/01/23 06:44:46;;;;;;;22.70;15.07;;;1.40;99.90;;;;;;5009791;28;20189;-71
2023/01/23 06:47:11;;;;;;;19.07;13.80;;;1.30;99.90;;;;;;5003991;28;20171;-70
2023/01/23 06:49:37;;;;;;;23.73;14.30;;;1.30;99.90;;;;;;5006141;28;20258;-70
2023/01/23 06:52:03;;;;;;;21.10;14.63;;;1.20;99.90;;;;;;5005482;28;20281;-70
2023/01/23 06:54:28;;;;;;;21.13;14.07;;;1.30;99.90;;;;;;5010062;28;20190;-70
2023/01/23 06:56:54;;;;;;;30.90;15.37;;;1.30;99.90;;;;;;5009434;28;20252;-70
2023/01/23 06:59:19;;;;;;;26.27;16.10;;;1.20;99.90;;;;;;5018046;28;20205;-71
2023/01/23 07:01:45;;;;;;;21.80;14.93;;;1.30;99.90;;;;;;5007129;28;20531;-70
2023/01/23 07:04:11;;;;;;;22.30;14.20;;;1.30;99.90;;;;;;5014606;28;20178;-70
2023/01/23 07:06:36;;;;;;;27.03;15.93;;;1.30;99.90;;;;;;4993989;28;20526;-70
2023/01/23 07:09:02;;;;;;;20.50;13.30;;;1.20;99.90;;;;;;5011147;28;20278;-70
2023/01/23 07:11:27;;;;;;;26.03;15.40;;;1.30;99.90;;;;;;5010675;28;20534;-71
2023/01/23 07:13:53;;;;;;;25.43;16.10;;;1.20;99.90;;;;;;5011858;28;20186;-70
2023/01/23 07:16:18;;;;;;;26.33;16.07;;;1.20;99.90;;;;;;5010774;28;20249;-71
2023/01/23 07:18:44;;;;;;;22.43;14.50;;;1.20;99.90;;;;;;5010788;28;20833;-70
2023/01/23 07:21:10;;;;;;;30.17;17.03;;;1.20;99.90;;;;;;5010969;28;20183;-70
2023/01/23 07:23:35;;;;;;;27.10;15.83;;;1.30;99.90;;;;;;5011909;28;20708;-70
2023/01/23 07:26:06;;;;;;;30.03;17.23;;;1.30;99.90;;;;;;4993533;28;20175;-70
2023/01/23 07:28:32;;;;;;;28.27;17.93;;;1.20;99.90;;;;;;5010066;28;20632;-71
2023/01/23 07:30:58;;;;;;;29.20;17.27;;;1.30;99.90;;;;;;5004009;28;20410;-70
2023/01/23 07:33:24;;;;;;;26.47;15.50;;;1.20;99.90;;;;;;5010874;28;20251;-70
2023/01/23 07:35:49;;;;;;;23.40;15.30;;;1.30;99.90;;;;;;5011008;28;20557;-70
2023/01/23 07:38:15;;;;;;;34.33;19.07;;;1.30;99.90;;;;;;5009274;28;20497;-70
2023/01/23 07:40:43;;;;;;;32.70;18.13;;;1.20;99.90;;;;;;5013230;28;20171;-70
2023/01/23 07:43:08;;;;;;;29.77;16.27;;;1.30;99.90;;;;;;5016161;28;20171;-70
2023/01/23 07:45:34;;;;;;;26.47;15.77;;;1.30;99.90;;;;;;5013437;28;20437;-70
2023/01/23 07:48:00;;;;;;;27.07;18.20;;;1.30;99.90;;;;;;5019597;28;20194;-70
2023/01/23 07:50:25;;;;;;;30.97;17.00;;;1.30;99.90;;;;;;5016979;28;20440;-70
2023/01/23 07:52:51;;;;;;;28.60;17.90;;;1.30;99.90;;;;;;5015392;28;20225;-70
2023/01/23 07:55:17;;;;;;;22.73;15.73;;;1.40;99.90;;;;;;5020564;28;20179;-69
2023/01/23 07:57:42;;;;;;;22.77;14.87;;;1.40;99.90;;;;;;5000051;28;20214;-69
2023/01/23 08:00:09;;;;;;;29.53;16.60;;;1.30;99.90;;;;;;4986815;28;20448;-70
2023/01/23 08:02:36;;;;;;;28.30;16.13;;;1.40;99.90;;;;;;5012624;28;20179;-70
2023/01/23 08:05:02;;;;;;;23.33;14.47;;;1.50;99.90;;;;;;5013109;28;20974;-69
2023/01/23 08:07:27;;;;;;;26.07;16.90;;;1.50;99.90;;;;;;5010105;28;20547;-71
2023/01/23 08:09:53;;;;;;;25.13;16.27;;;1.60;99.90;;;;;;5010333;28;20754;-71
2023/01/23 08:12:18;;;;;;;25.07;14.87;;;1.60;99.90;;;;;;5009602;28;20187;-70
2023/01/23 08:14:44;;;;;;;22.53;15.27;;;1.70;99.90;;;;;;5005157;28;20184;-71
2023/01/23 08:17:09;;;;;;;22.73;14.43;;;1.70;99.90;;;;;;5005678;28;20212;-70
2023/01/23 08:19:35;;;;;;;22.73;14.13;;;1.90;99.90;;;;;;4995896;28;20636;-70
2023/01/23 08:22:00;;;;;;;24.60;16.33;;;1.90;99.90;;;;;;5008625;28;20645;-71
2023/01/23 08:24:26;;;;;;;25.47;15.03;;;2.00;99.90;;;;;;5010646;28;20175;-71
2023/01/23 08:26:51;;;;;;;23.73;13.90;;;1.90;99.90;;;;;;5012301;28;20174;-70
2023/01/23 08:29:17;;;;;;;29.50;17.47;;;2.00;99.90;;;;;;5010390;28;20229;-71
2023/01/23 08:31:42;;;;;;;23.07;15.83;;;2.00;99.90;;;;;;5012266;28;20210;-68
2023/01/23 08:34:08;;;;;;;21.77;15.37;;;2.00;99.90;;;;;;5013737;28;20549;-70
2023/01/23 08:36:33;;;;;;;25.03;16.70;;;1.90;99.90;;;;;;5012714;28;20203;-70
2023/01/23 08:38:59;;;;;;;24.67;14.10;;;1.80;99.90;;;;;;5007382;28;20253;-70
2023/01/23 08:41:25;;;;;;;22.90;14.00;;;1.90;99.90;;;;;;5009280;28;21670;-71
2023/01/23 08:43:50;;;;;;;23.83;14.80;;;1.70;99.90;;;;;;5017249;28;20257;-71
2023/01/23 08:46:16;;;;;;;24.83;14.30;;;1.70;99.90;;;;;;5011492;28;20641;-71
2023/01/23 08:48:42;;;;;;;23.87;14.23;;;1.70;99.90;;;;;;5007427;28;20225;-69
2023/01/23 08:51:12;;;;;;;22.27;14.73;;;1.80;99.90;;;;;;5009698;28;20696;-71
2023/01/23 08:53:38;;;;;;;21.50;14.10;;;1.90;99.90;;;;;;5012358;28;20199;-71
2023/01/23 08:56:13;;;;;;;24.67;14.67;;;1.90;99.90;;;;;;5013946;28;20457;-71
2023/01/23 08:58:38;;;;;;;23.33;15.20;;;2.00;99.90;;;;;;5006194;28;20836;-70
2023/01/23 09:01:04;;;;;;;18.93;12.90;;;2.10;99.90;;;;;;5008595;28;20445;-71
2023/01/23 09:03:29;;;;;;;23.10;15.00;;;2.20;99.90;;;;;;5011255;28;20183;-71
2023/01/23 09:06:00;;;;;;;20.33;14.20;;;2.10;99.90;;;;;;5013811;28;20179;-71
2023/01/23 09:08:26;;;;;;;25.40;16.23;;;2.10;99.90;;;;;;5006142;28;20248;-70
2023/01/23 09:10:51;;;;;;;24.47;13.77;;;2.10;99.90;;;;;;5004966;28;20418;-71
2023/01/23 09:13:18;;;;;;;23.93;15.37;;;2.10;99.90;;;;;;5012513;28;20667;-71
2023/01/23 09:15:44;;;;;;;22.90;14.40;;;2.30;99.90;;;;;;5011857;28;20201;-71
2023/01/23 09:18:10;;;;;;;18.40;13.70;;;2.50;99.90;;;;;;5008992;28;20516;-70
2023/01/23 09:20:37;;;;;;;17.73;13.33;;;2.60;99.90;;;;;;5011960;28;20473;-71
2023/01/23 09:23:03;;;;;;;17.97;12.13;;;2.90;99.90;;;;;;5012448;28;20213;-70
2023/01/23 09:25:30;;;;;;;19.33;13.37;;;3.10;99.90;;;;;;5012600;28;20454;-70
2023/01/23 09:27:56;;;;;;;18.77;12.80;;;3.50;99.90;;;;;;5008785;28;20191;-71
2023/01/23 09:30:21;;;;;;;17.80;12.23;;;3.60;99.90;;;;;;5010320;28;20429;-70
2023/01/23 09:32:47;;;;;;;19.73;12.73;;;3.50;99.90;;;;;;5012215;28;20179;-71
2023/01/23 09:35:12;;;;;;;18.00;12.20;;;3.20;99.90;;;;;;5012159;28;20194;-71
2023/01/23 09:40:23;;;;;;;18.20;11.10;;;2.80;99.90;;;;;;5009722;28;20221;-71
2023/01/23 09:42:50;;;;;;;15.47;11.37;;;2.60;99.90;;;;;;5014298;28;20935;-71
2023/01/23 09:45:20;;;;;;;14.60;11.53;;;2.50;99.90;;;;;;5020909;28;20507;-71
2023/01/23 09:47:58;;;;;;;16.27;11.63;;;2.40;99.90;;;;;;5007801;28;20470;-71
2023/01/23 09:50:27;;;;;;;15.30;10.10;;;2.20;99.90;;;;;;5011028;28;20446;-71
2023/01/23 09:53:21;;;;;;;14.50;10.17;;;2.20;99.90;;;;;;5010897;28;20446;-71
2023/01/23 09:55:56;;;;;;;18.57;11.70;;;2.10;99.90;;;;;;5009011;28;20434;-70
2023/01/23 09:58:27;;;;;;;18.10;12.23;;;2.00;99.90;;;;;;5006546;28;20458;-71
2023/01/23 10:00:52;;;;;;;16.93;10.80;;;2.00;99.90;;;;;;5006002;28;20437;-70
2023/01/23 10:03:18;;;;;;;18.10;12.67;;;2.00;99.90;;;;;;5011124;28;20537;-68
2023/01/23 10:05:49;;;;;;;16.03;11.70;;;2.10;99.90;;;;;;5011411;28;20182;-70
2023/01/23 10:08:33;;;;;;;20.77;11.43;;;2.00;99.90;;;;;;4990092;28;20544;-71
2023/01/23 10:11:07;;;;;;;14.50;10.03;;;1.90;99.90;;;;;;5000782;28;20422;-67
2023/01/23 10:13:51;;;;;;;15.53;9.33;;;1.90;99.90;;;;;;5011286;28;20517;-71
2023/01/23 10:16:36;;;;;;;12.40;10.53;;;1.80;99.90;;;;;;5011213;28;20457;-71
2023/01/23 10:19:23;;;;;;;14.00;9.70;;;1.80;99.90;;;;;;5006143;28;20548;-71
2023/01/23 10:21:57;;;;;;;15.37;9.57;;;2.10;99.90;;;;;;5010137;28;20481;-70
2023/01/23 10:24:49;;;;;;;18.17;10.40;;;2.30;99.90;;;;;;5007436;28;20567;-70
2023/01/23 10:27:29;;;;;;;16.53;9.80;;;2.40;99.90;;;;;;5004281;28;20880;-70
2023/01/23 10:29:56;;;;;;;13.03;9.40;;;2.40;99.90;;;;;;5009081;28;20819;-70
2023/01/23 10:32:26;;;;;;;16.93;11.20;;;2.40;99.90;;;;;;5012005;28;20426;-70
2023/01/23 10:35:12;;;;;;;12.60;9.37;;;2.50;99.90;;;;;;5010581;28;20513;-70
2023/01/23 10:37:47;;;;;;;18.53;10.17;;;2.60;99.90;;;;;;4990156;28;20477;-70
2023/01/23 10:41:12;;;;;;;16.90;9.73;;;2.80;99.90;;;;;;5009847;28;20444;-71
2023/01/23 10:43:13;;;;;;;16.43;10.23;;;2.80;99.90;;;;;;5005341;28;20930;-70
2023/01/23 10:45:39;;;;;;;17.20;10.40;;;2.70;99.90;;;;;;4994126;28;20422;-69
2023/01/23 10:48:31;;;;;;;19.50;12.67;;;2.50;99.90;;;;;;5004761;28;20446;-71
2023/01/23 10:50:57;;;;;;;17.13;11.53;;;2.40;99.90;;;;;;5008681;28;20417;-71
2023/01/23 10:53:24;;;;;;;17.50;11.60;;;2.40;99.90;;;;;;5008851;28;20434;-71
2023/01/23 10:55:54;;;;;;;14.30;10.30;;;2.40;99.90;;;;;;5011925;28;20429;-71
2023/01/23 10:58:34;;;;;;;20.67;12.20;;;2.50;99.90;;;;;;5004390;28;20449;-71
2023/01/23 11:01:00;;;;;;;17.10;10.80;;;2.50;99.90;;;;;;5003383;28;20425;-72
2023/01/23 11:03:27;;;;;;;18.13;11.60;;;2.50;99.90;;;;;;5006859;28;20678;-71
2023/01/23 11:06:00;;;;;;;17.90;12.13;;;2.50;99.90;;;;;;5007220;28;20264;-69
2023/01/23 11:08:53;;;;;;;325.53;118.47;;;2.50;99.90;;;;;;5006458;28;21203;-69
2023/01/23 11:11:25;;;;;;;73.30;30.50;;;2.70;99.90;;;;;;5000651;28;20441;-70
2023/01/23 11:14:05;;;;;;;129.13;47.10;;;2.70;99.90;;;;;;5011169;28;20848;-68
2023/01/23 11:16:31;;;;;;;79.90;29.13;;;2.80;99.90;;;;;;5009662;28;20462;-68
2023/01/23 11:19:08;;;;;;;38.07;15.00;;;2.70;99.90;;;;;;5005491;28;20484;-66
2023/01/23 11:21:36;;;;;;;27.40;15.33;;;2.70;99.90;;;;;;5010176;28;20170;-67
2023/01/23 11:24:21;;;;;;;23.80;14.43;;;2.60;99.90;;;;;;5013358;28;20436;-67
2023/01/23 11:26:49;;;;;;;32.70;14.20;;;2.80;99.90;;;;;;5014503;28;20596;-67
2023/01/23 11:29:25;;;;;;;22.77;13.60;;;2.80;99.90;;;;;;5009337;28;20461;-66
2023/01/23 11:32:07;;;;;;;22.10;14.50;;;2.80;99.90;;;;;;5014410;28;20425;-65
2023/01/23 11:34:39;;;;;;;22.60;13.97;;;2.70;99.90;;;;;;5011942;28;20441;-70
2023/01/23 11:37:17;;;;;;;18.57;13.70;;;2.70;99.90;;;;;;5011508;28;20460;-69
2023/01/23 11:39:52;;;;;;;23.33;12.43;;;2.60;99.90;;;;;;5008657;28;20491;-73
2023/01/23 11:42:18;;;;;;;18.03;11.83;;;2.60;99.90;;;;;;5012870;28;20536;-69
2023/01/23 11:44:45;;;;;;;29.43;14.33;;;2.60;99.90;;;;;;5010055;28;20488;-68
2023/01/23 11:47:16;;;;;;;19.83;12.27;;;2.70;99.90;;;;;;5012389;28;20440;-69
2023/01/23 11:50:14;;;;;;;19.80;11.70;;;2.70;99.90;;;;;;5007063;28;20453;-66
2023/01/23 11:52:54;;;;;;;20.00;11.97;;;2.80;99.90;;;;;;5014681;28;20422;-69
2023/01/23 11:55:57;;;;;;;28.43;13.97;;;2.80;99.90;;;;;;5011657;28;20445;-70
2023/01/23 11:58:42;;;;;;;21.17;13.00;;;2.80;99.90;;;;;;5006698;28;20468;-68
2023/01/23 12:01:14;;;;;;;22.53;14.20;;;2.90;99.90;;;;;;5005800;28;20448;-69
2023/01/23 12:04:10;;;;;;;33.80;18.00;;;3.00;99.90;;;;;;5020354;28;20440;-72
2023/01/23 12:06:55;;;;;;;15.93;11.70;;;3.60;99.90;;;;;;5016440;28;20452;-71
2023/01/23 12:09:21;;;;;;;21.50;14.43;;;3.70;99.90;;;;;;5019989;28;20464;-71
2023/01/23 12:12:44;;;;;;;16.80;11.70;;;3.60;99.90;;;;;;5018350;28;20441;-70
2023/01/23 12:15:46;;;;;;;25.60;15.30;;;3.40;99.90;;;;;;4921315;29;20448;-70
2023/01/23 12:18:45;;;;;;;23.00;12.93;;;3.20;99.90;;;;;;5010401;28;20476;-69
2023/01/23 12:21:24;;;;;;;21.20;12.97;;;3.00;99.90;;;;;;5007820;28;20438;-68
2023/01/23 12:24:41;;;;;;;18.30;13.07;;;2.90;99.90;;;;;;5013045;28;20442;-69
2023/01/23 12:27:17;;;;;;;28.67;15.63;;;3.10;99.90;;;;;;4963992;28;20520;-71
2023/01/23 12:30:21;;;;;;;19.80;13.83;;;3.30;99.90;;;;;;4995101;28;20802;-70
2023/01/23 12:33:07;;;;;;;20.10;13.47;;;3.50;99.90;;;;;;5011525;28;20524;-69
2023/01/23 12:36:24;;;;;;;20.30;13.97;;;3.50;99.90;;;;;;5017291;28;20444;-70
2023/01/23 12:39:19;;;;;;;16.60;12.23;;;3.60;99.90;;;;;;4982908;28;20472;-69
2023/01/23 12:41:50;;;;;;;19.40;13.03;;;3.70;99.90;;;;;;4952425;28;20442;-70
2023/01/23 12:44:23;;;;;;;22.40;14.20;;;3.80;99.90;;;;;;5009408;28;20541;-69
2023/01/23 12:46:56;;;;;;;15.13;10.87;;;4.10;99.90;;;;;;5016382;28;20452;-68
2023/01/23 12:49:47;;;;;;;16.10;11.63;;;4.10;99.90;;;;;;5008263;28;20450;-71
2023/01/23 12:52:24;;;;;;;18.13;13.90;;;4.30;99.90;;;;;;5006690;28;20439;-70
2023/01/23 12:55:11;;;;;;;20.33;12.70;;;4.20;99.90;;;;;;5009813;28;20462;-70
2023/01/23 12:57:38;;;;;;;16.73;12.50;;;4.40;99.90;;;;;;5009639;28;20461;-70
2023/01/23 13:00:31;;;;;;;16.30;11.73;;;4.60;99.90;;;;;;5007332;28;20520;-68